Time;durP1;ratioP1;P1;durP2;ratioP2;P2;SDS_P1;SDS_P2;PMS_P1;PMS_P2;Temp;Humidity;BMP_temperature;BMP_pressure;BME280_temperature;BME280_humidity;BME280_pressure;Samples;Min_cycle;Max_cycle;Signal;HPM_P1;HPM_P2
2022/12/15 00:39:16;;;;;;;32.13;21.88;;;;;;;;;;4999896;28;20052;-72
2022/12/15 00:41:42;;;;;;;21.10;17.88;;;;;;;;;;5006872;28;20029;-72
2022/12/15 00:44:08;;;;;;;24.00;19.45;;;;;;;;;;5002490;28;20034;-72
2022/12/15 00:46:53;;;;;;;29.30;23.98;;;;;;;;;;5009886;28;20033;-73
2022/12/15 01:20:33;;;;;;;28.38;20.77;;;;;;;;;;5003098;28;20041;-78
2022/12/15 01:22:59;;;;;;;24.90;19.08;;;;;;;;;;5007452;28;20022;-78
2022/12/15 01:25:28;;;;;;;23.00;17.40;;;;;;;;;;5007110;28;20480;-78
2022/12/15 01:27:53;;;;;;;27.13;18.08;;;;;;;;;;5004940;28;20026;-77
2022/12/15 01:30:21;;;;;;;24.58;17.98;;;;;;;;;;5000587;28;20771;-78
2022/12/15 01:32:49;;;;;;;53.63;21.17;;;;;;;;;;5001371;28;20022;-78
2022/12/15 01:35:18;;;;;;;23.80;17.90;;;;;;;;;;5019680;28;20038;-78
2022/12/15 01:37:44;;;;;;;27.83;19.65;;;;;;;;;;5009561;28;20044;-78
2022/12/15 01:43:04;;;;;;;31.17;20.38;;;;;;;;;;5010094;28;20033;-78
2022/12/15 01:45:30;;;;;;;30.90;19.20;;;;;;;;;;5007338;28;20029;-78
2022/12/15 01:47:56;;;;;;;25.92;21.08;;;;;;;;;;5011436;28;20038;-78
2022/12/15 01:50:25;;;;;;;30.27;19.63;;;;;;;;;;5007196;28;20026;-78
2022/12/15 01:52:53;;;;;;;27.52;18.40;;;;;;;;;;5002433;28;20036;-78
2022/12/15 01:55:26;;;;;;;25.20;21.10;;;;;;;;;;5004439;28;20184;-78
2022/12/15 01:57:55;;;;;;;23.73;19.05;;;;;;;;;;5006044;28;20236;-77
2022/12/15 02:00:23;;;;;;;22.33;17.95;;;;;;;;;;4992040;28;20048;-78
2022/12/15 02:02:49;;;;;;;24.38;19.13;;;;;;;;;;5001930;28;20531;-78
2022/12/15 02:05:17;;;;;;;27.30;20.42;;;;;;;;;;4998644;28;20042;-78
2022/12/15 02:07:45;;;;;;;21.33;17.35;;;;;;;;;;5001270;28;20022;-78
2022/12/15 02:10:14;;;;;;;31.83;22.83;;;;;;;;;;5003014;28;20034;-78
2022/12/15 02:12:58;;;;;;;25.65;18.90;;;;;;;;;;5001699;28;20365;-78
2022/12/15 02:15:56;;;;;;;26.65;20.25;;;;;;;;;;5010688;28;20038;-78
2022/12/15 02:18:36;;;;;;;34.60;20.90;;;;;;;;;;4982284;28;20037;-78
2022/12/15 02:21:19;;;;;;;23.17;17.55;;;;;;;;;;4998670;28;20034;-75
2022/12/15 02:23:50;;;;;;;25.17;19.38;;;;;;;;;;5005202;28;20388;-77
2022/12/15 02:26:48;;;;;;;25.08;19.50;;;;;;;;;;4990647;28;20038;-78
2022/12/15 02:29:32;;;;;;;21.45;17.15;;;;;;;;;;5003837;28;20490;-78
2022/12/15 02:32:27;;;;;;;24.80;19.10;;;;;;;;;;5003402;28;20388;-78
2022/12/15 02:34:56;;;;;;;24.20;18.58;;;;;;;;;;5004317;28;20033;-77
2022/12/15 02:37:38;;;;;;;20.55;15.23;;;;;;;;;;4997191;28;20423;-78
2022/12/15 02:40:08;;;;;;;25.35;20.75;;;;;;;;;;5003647;28;20587;-77
2022/12/15 02:42:35;;;;;;;29.38;20.38;;;;;;;;;;5007994;28;20029;-78
2022/12/15 02:45:06;;;;;;;31.88;19.33;;;;;;;;;;5004412;28;20041;-77
2022/12/15 02:47:46;;;;;;;24.38;20.08;;;;;;;;;;5005758;28;20053;-78
2022/12/15 02:50:40;;;;;;;23.27;17.23;;;;;;;;;;4982163;28;20023;-78
2022/12/15 02:53:49;;;;;;;24.95;18.15;;;;;;;;;;4988923;28;20030;-78
2022/12/15 02:56:22;;;;;;;27.60;21.85;;;;;;;;;;4998318;28;20385;-78
2022/12/15 02:58:51;;;;;;;24.00;17.13;;;;;;;;;;4985593;28;20179;-78
2022/12/15 03:01:24;;;;;;;24.85;20.27;;;;;;;;;;5001677;28;20046;-77
2022/12/15 03:03:53;;;;;;;25.80;18.02;;;;;;;;;;5005640;28;20115;-78
2022/12/15 03:06:19;;;;;;;21.30;19.08;;;;;;;;;;5007541;28;20369;-78
2022/12/15 03:08:49;;;;;;;29.63;19.05;;;;;;;;;;5005610;28;20037;-78
2022/12/15 03:11:15;;;;;;;21.23;16.65;;;;;;;;;;5002362;28;20030;-77
2022/12/15 03:13:43;;;;;;;26.23;19.27;;;;;;;;;;5000601;28;20594;-78
2022/12/15 03:16:11;;;;;;;21.23;18.17;;;;;;;;;;4997333;28;20037;-77
2022/12/15 03:18:40;;;;;;;24.90;19.23;;;;;;;;;;4994462;28;20042;-78
2022/12/15 03:21:06;;;;;;;25.55;16.17;;;;;;;;;;5009428;28;20436;-78
2022/12/15 03:23:32;;;;;;;19.95;16.95;;;;;;;;;;5005746;28;20475;-78
2022/12/15 03:26:01;;;;;;;27.00;19.27;;;;;;;;;;4995227;28;20025;-78
2022/12/15 03:28:32;;;;;;;24.80;18.58;;;;;;;;;;4981753;28;20037;-78
2022/12/15 03:31:00;;;;;;;25.10;16.83;;;;;;;;;;5001464;28;20567;-77
2022/12/15 03:33:31;;;;;;;30.83;21.60;;;;;;;;;;5003693;28;20392;-78
2022/12/15 03:35:57;;;;;;;24.17;20.00;;;;;;;;;;5006420;28;20495;-78
2022/12/15 03:38:25;;;;;;;23.15;18.95;;;;;;;;;;5006027;28;20038;-78
2022/12/15 03:40:53;;;;;;;32.72;20.00;;;;;;;;;;5006092;28;20042;-78
2022/12/15 03:43:22;;;;;;;22.17;18.23;;;;;;;;;;5010212;28;20021;-78
2022/12/15 03:45:50;;;;;;;25.50;17.83;;;;;;;;;;5002265;28;20042;-78
2022/12/15 03:48:16;;;;;;;26.42;21.08;;;;;;;;;;4993065;28;20044;-78
2022/12/15 03:50:43;;;;;;;34.00;22.10;;;;;;;;;;5009674;28;20100;-77
2022/12/15 03:53:13;;;;;;;29.80;21.17;;;;;;;;;;4993525;28;20037;-77
2022/12/15 03:55:39;;;;;;;26.70;19.75;;;;;;;;;;5002596;28;20037;-78
2022/12/15 03:58:08;;;;;;;20.00;17.83;;;;;;;;;;5000450;28;20385;-78
2022/12/15 04:00:34;;;;;;;22.92;19.42;;;;;;;;;;5001504;28;20037;-78
2022/12/15 04:03:02;;;;;;;22.20;19.38;;;;;;;;;;5011152;28;20400;-78
2022/12/15 04:05:30;;;;;;;28.20;19.35;;;;;;;;;;5010184;28;20038;-78
2022/12/15 04:08:00;;;;;;;26.65;19.15;;;;;;;;;;5022539;28;20030;-78
2022/12/15 04:10:29;;;;;;;27.50;19.80;;;;;;;;;;5003470;28;20037;-77
2022/12/15 04:12:58;;;;;;;23.52;17.98;;;;;;;;;;5005480;28;20512;-78
2022/12/15 04:15:26;;;;;;;29.50;19.73;;;;;;;;;;5019885;28;20044;-77
2022/12/15 04:17:54;;;;;;;21.55;16.67;;;;;;;;;;5010631;28;20057;-78
2022/12/15 04:20:23;;;;;;;33.33;21.83;;;;;;;;;;5003830;28;20030;-78
2022/12/15 04:22:51;;;;;;;26.13;19.10;;;;;;;;;;5008682;28;20033;-78
2022/12/15 05:31:51;;;;;;;21.33;19.20;;;;;;;;;;5004179;28;20527;-78
2022/12/15 05:34:18;;;;;;;20.25;17.00;;;;;;;;;;5004954;28;20084;-78
2022/12/15 05:36:44;;;;;;;25.17;20.17;;;;;;;;;;5008959;28;20040;-78
2022/12/15 05:39:09;;;;;;;33.85;21.95;;;;;;;;;;5005815;28;20033;-78
2022/12/15 05:41:40;;;;;;;28.73;21.35;;;;;;;;;;4998910;28;20029;-78
2022/12/15 05:44:09;;;;;;;24.75;19.50;;;;;;;;;;4998924;28;20041;-78
2022/12/15 05:46:35;;;;;;;21.65;18.33;;;;;;;;;;5003974;28;20360;-77
2022/12/15 05:49:02;;;;;;;27.35;19.58;;;;;;;;;;5017371;28;20033;-78
2022/12/15 05:51:30;;;;;;;24.27;20.50;;;;;;;;;;4989505;28;20026;-78
2022/12/15 05:53:56;;;;;;;26.00;18.10;;;;;;;;;;5006674;28;20037;-77
2022/12/15 05:56:26;;;;;;;22.65;19.92;;;;;;;;;;5005702;28;20056;-77
2022/12/15 05:58:54;;;;;;;26.20;19.83;;;;;;;;;;5007459;28;20041;-77
2022/12/15 06:01:26;;;;;;;22.90;18.65;;;;;;;;;;5005465;28;20036;-77
2022/12/15 06:03:54;;;;;;;25.55;19.08;;;;;;;;;;5004598;28;20610;-78
2022/12/15 06:06:23;;;;;;;20.83;15.95;;;;;;;;;;5006030;28;21414;-78
2022/12/15 06:08:51;;;;;;;22.75;18.38;;;;;;;;;;5009384;28;20484;-77
2022/12/15 06:11:21;;;;;;;25.80;17.90;;;;;;;;;;4998818;28;20080;-78
2022/12/15 06:13:47;;;;;;;20.45;17.35;;;;;;;;;;5008076;28;20492;-77
2022/12/15 06:16:16;;;;;;;24.73;19.65;;;;;;;;;;5005625;28;20038;-77
2022/12/15 06:18:46;;;;;;;32.35;19.88;;;;;;;;;;5006640;28;20472;-77
2022/12/15 06:21:15;;;;;;;26.60;18.92;;;;;;;;;;5008760;28;20026;-77
2022/12/15 06:23:42;;;;;;;22.42;17.10;;;;;;;;;;5007975;28;20369;-77
2022/12/15 06:26:13;;;;;;;24.27;17.73;;;;;;;;;;5011587;28;20037;-77
2022/12/15 06:28:43;;;;;;;27.40;21.27;;;;;;;;;;5008468;28;20097;-77
2022/12/15 06:31:11;;;;;;;21.08;17.63;;;;;;;;;;4991284;28;20037;-78
2022/12/15 06:33:38;;;;;;;27.17;18.33;;;;;;;;;;5007885;28;20034;-77
2022/12/15 06:36:08;;;;;;;23.13;20.15;;;;;;;;;;4983348;28;20042;-77
2022/12/15 06:38:38;;;;;;;23.13;19.15;;;;;;;;;;5003514;28;20029;-78
2022/12/15 06:41:06;;;;;;;32.13;17.98;;;;;;;;;;5004126;28;20054;-69
2022/12/15 06:43:34;;;;;;;30.65;20.30;;;;;;;;;;5009745;28;20026;-76
2022/12/15 06:46:07;;;;;;;21.42;17.80;;;;;;;;;;4982170;28;20034;-76
2022/12/15 06:48:35;;;;;;;23.73;19.88;;;;;;;;;;4991349;28;20029;-76
2022/12/15 06:51:05;;;;;;;26.33;18.58;;;;;;;;;;4989856;28;20034;-76
2022/12/15 06:53:31;;;;;;;29.50;21.27;;;;;;;;;;5000485;28;20057;-77
2022/12/15 06:56:06;;;;;;;27.75;20.65;;;;;;;;;;4987521;28;20059;-76
2022/12/15 06:58:35;;;;;;;25.63;19.45;;;;;;;;;;5007082;28;20508;-78
2022/12/15 07:01:06;;;;;;;20.40;16.52;;;;;;;;;;5003290;28;20018;-75
2022/12/15 07:03:33;;;;;;;25.40;19.48;;;;;;;;;;4989644;28;20037;-77
2022/12/15 07:06:04;;;;;;;21.92;17.63;;;;;;;;;;4999164;28;20036;-77
2022/12/15 07:08:30;;;;;;;32.33;18.92;;;;;;;;;;5003081;28;20029;-78
2022/12/15 07:11:01;;;;;;;26.27;19.67;;;;;;;;;;5009535;28;20044;-77
2022/12/15 07:13:29;;;;;;;31.95;21.30;;;;;;;;;;5012558;28;20025;-78
2022/12/15 07:15:59;;;;;;;22.50;18.08;;;;;;;;;;5011873;22;20069;-72
2022/12/15 07:18:25;;;;;;;22.85;17.50;;;;;;;;;;4971055;28;20400;-73
2022/12/15 07:20:55;;;;;;;27.73;18.88;;;;;;;;;;4987458;28;20030;-73
2022/12/15 07:23:24;;;;;;;25.58;16.77;;;;;;;;;;5009695;28;20061;-70
2022/12/15 07:25:54;;;;;;;24.42;17.95;;;;;;;;;;4997870;28;20503;-72
2022/12/15 07:28:20;;;;;;;27.13;18.65;;;;;;;;;;4984338;28;20046;-72
2022/12/15 07:30:48;;;;;;;25.52;18.45;;;;;;;;;;4990866;28;20038;-74
2022/12/15 07:33:19;;;;;;;25.95;21.15;;;;;;;;;;4981693;28;20027;-72
2022/12/15 07:35:51;;;;;;;25.85;18.02;;;;;;;;;;4986837;28;20416;-72
2022/12/15 07:38:20;;;;;;;18.63;15.30;;;;;;;;;;4984178;28;20033;-72
2022/12/15 07:40:45;;;;;;;20.10;17.35;;;;;;;;;;4990914;28;20034;-72
2022/12/15 07:43:11;;;;;;;22.08;17.40;;;;;;;;;;4988421;28;20054;-73
2022/12/15 07:45:42;;;;;;;28.95;17.80;;;;;;;;;;4986657;28;20038;-72
2022/12/15 07:48:13;;;;;;;34.03;19.13;;;;;;;;;;4984856;28;20050;-73
2022/12/15 07:50:39;;;;;;;25.77;17.65;;;;;;;;;;4983924;28;20034;-72
2022/12/15 07:53:04;;;;;;;28.08;17.13;;;;;;;;;;4991436;28;20038;-72
2022/12/15 07:55:31;;;;;;;26.00;18.80;;;;;;;;;;4990368;28;20089;-72
2022/12/15 07:57:57;;;;;;;21.63;15.93;;;;;;;;;;4993678;28;20035;-72
2022/12/15 08:00:23;;;;;;;25.80;16.88;;;;;;;;;;4994743;28;20026;-72
2022/12/15 08:02:51;;;;;;;21.33;19.13;;;;;;;;;;4991643;28;20033;-72
2022/12/15 08:05:19;;;;;;;21.00;17.15;;;;;;;;;;4993706;28;20092;-71
2022/12/15 08:07:48;;;;;;;27.48;19.33;;;;;;;;;;4995487;28;20398;-72
2022/12/15 08:10:16;;;;;;;20.30;16.90;;;;;;;;;;4974108;28;20400;-72
2022/12/15 08:12:47;;;;;;;23.60;17.15;;;;;;;;;;4992127;28;20042;-72
2022/12/15 08:15:17;;;;;;;24.27;17.35;;;;;;;;;;4989756;28;20034;-72
2022/12/15 08:17:47;;;;;;;27.58;18.73;;;;;;;;;;4999898;28;20432;-72
2022/12/15 08:20:16;;;;;;;25.00;16.55;;;;;;;;;;4984016;28;20031;-72
2022/12/15 08:22:46;;;;;;;25.75;16.90;;;;;;;;;;4986576;28;20033;-72
2022/12/15 08:25:15;;;;;;;22.38;18.27;;;;;;;;;;4984894;28;20030;-72
2022/12/15 08:27:41;;;;;;;26.25;16.58;;;;;;;;;;4989273;28;20397;-71
2022/12/15 08:30:07;;;;;;;20.70;16.00;;;;;;;;;;4987557;28;20054;-71
2022/12/15 08:32:33;;;;;;;23.08;15.85;;;;;;;;;;4988186;28;20030;-71
2022/12/15 08:35:01;;;;;;;22.27;15.90;;;;;;;;;;4971767;28;20112;-71
2022/12/15 08:37:27;;;;;;;18.88;16.92;;;;;;;;;;4987205;28;20031;-72
2022/12/15 08:39:53;;;;;;;26.02;18.30;;;;;;;;;;4989901;28;20026;-72
2022/12/15 08:42:19;;;;;;;26.55;19.38;;;;;;;;;;4990745;28;20070;-71
2022/12/15 08:44:47;;;;;;;18.65;15.80;;;;;;;;;;4988281;28;20044;-71
2022/12/15 08:47:13;;;;;;;21.80;16.42;;;;;;;;;;4988565;28;20030;-71
2022/12/15 08:49:43;;;;;;;21.08;15.77;;;;;;;;;;4992117;28;20034;-71
2022/12/15 08:52:12;;;;;;;18.23;14.63;;;;;;;;;;4983409;28;20742;-74
2022/12/15 08:54:45;;;;;;;19.48;15.02;;;;;;;;;;4992290;28;20481;-73
2022/12/15 08:57:11;;;;;;;26.70;18.45;;;;;;;;;;4984092;28;20046;-72
2022/12/15 08:59:37;;;;;;;17.73;13.50;;;;;;;;;;4989420;28;20417;-73
2022/12/15 09:02:03;;;;;;;20.30;16.23;;;;;;;;;;4990921;28;20034;-72
2022/12/15 09:04:29;;;;;;;21.80;14.38;;;;;;;;;;4977623;28;20065;-73
2022/12/15 09:06:59;;;;;;;22.17;14.15;;;;;;;;;;4996397;28;20026;-72
2022/12/15 09:09:27;;;;;;;17.50;13.60;;;;;;;;;;4975096;28;20042;-72
2022/12/15 09:11:53;;;;;;;21.48;14.40;;;;;;;;;;4992931;28;20030;-73
2022/12/15 09:14:21;;;;;;;18.33;13.40;;;;;;;;;;4990733;28;20030;-72
2022/12/15 09:16:49;;;;;;;20.63;14.52;;;;;;;;;;4988510;28;20045;-72
2022/12/15 09:19:18;;;;;;;18.92;13.50;;;;;;;;;;4986950;28;20030;-72
2022/12/15 09:21:43;;;;;;;20.92;15.98;;;;;;;;;;4984288;28;20038;-72
2022/12/15 09:24:11;;;;;;;19.95;15.23;;;;;;;;;;4996355;28;20030;-72
2022/12/15 09:26:37;;;;;;;19.80;14.85;;;;;;;;;;4988519;28;20041;-73
2022/12/15 09:29:05;;;;;;;21.85;14.32;;;;;;;;;;4993661;28;20095;-72
2022/12/15 09:31:34;;;;;;;18.80;14.75;;;;;;;;;;4983275;28;20033;-71
2022/12/15 09:34:03;;;;;;;20.73;15.32;;;;;;;;;;4998042;28;20038;-72
2022/12/15 09:36:34;;;;;;;24.67;16.95;;;;;;;;;;5002210;28;20035;-72
2022/12/15 09:39:01;;;;;;;19.33;14.00;;;;;;;;;;4984110;28;20401;-72
2022/12/15 09:41:33;;;;;;;26.90;17.50;;;;;;;;;;4986143;28;20410;-73
2022/12/15 09:44:01;;;;;;;24.17;14.88;;;;;;;;;;4990018;28;20046;-73
2022/12/15 09:46:40;;;;;;;17.23;12.73;;;;;;;;;;5000293;28;20034;-73
2022/12/15 09:49:18;;;;;;;16.58;13.65;;;;;;;;;;4998282;28;20392;-73
2022/12/15 09:51:47;;;;;;;16.88;13.48;;;;;;;;;;5017114;28;20026;-72
2022/12/15 09:54:15;;;;;;;17.50;15.38;;;;;;;;;;4988697;28;20037;-72
2022/12/15 09:56:44;;;;;;;19.92;14.55;;;;;;;;;;4989200;28;20416;-72
2022/12/15 09:59:19;;;;;;;20.50;14.60;;;;;;;;;;4988815;28;20037;-73
2022/12/15 10:01:50;;;;;;;42.25;14.20;;;;;;;;;;4988379;28;20210;-73
2022/12/15 10:04:36;;;;;;;23.38;13.77;;;;;;;;;;4965169;28;20048;-72
2022/12/15 10:07:34;;;;;;;18.25;15.05;;;;;;;;;;4982334;28;20030;-73
2022/12/15 10:10:06;;;;;;;16.02;12.70;;;;;;;;;;4960316;28;20038;-72
2022/12/15 10:12:39;;;;;;;19.33;13.05;;;;;;;;;;4987489;28;20030;-72
2022/12/15 10:15:27;;;;;;;40.88;16.08;;;;;;;;;;4987192;28;20038;-72
2022/12/15 10:18:05;;;;;;;16.67;12.90;;;;;;;;;;4970431;28;20042;-72
2022/12/15 10:20:35;;;;;;;17.05;12.68;;;;;;;;;;4989582;28;20042;-72
2022/12/15 10:23:09;;;;;;;17.42;15.15;;;;;;;;;;4985746;28;20030;-72
2022/12/15 10:25:35;;;;;;;16.63;12.95;;;;;;;;;;4989244;28;20388;-72
2022/12/15 10:28:03;;;;;;;18.77;13.43;;;;;;;;;;4988509;28;20038;-72
2022/12/15 10:30:29;;;;;;;16.88;13.20;;;;;;;;;;4989981;28;20480;-72
2022/12/15 10:33:07;;;;;;;17.15;11.32;;;;;;;;;;4990786;28;20077;-72
2022/12/15 10:35:35;;;;;;;16.13;12.82;;;;;;;;;;4991878;28;20049;-72
2022/12/15 10:38:03;;;;;;;21.02;15.80;;;;;;;;;;4971501;28;20033;-72
2022/12/15 10:41:04;;;;;;;25.80;13.07;;;;;;;;;;4982343;28;20353;-71
2022/12/15 10:43:43;;;;;;;17.98;12.75;;;;;;;;;;4964803;28;20066;-72
2022/12/15 10:46:12;;;;;;;12.70;10.38;;;;;;;;;;4974690;28;20054;-72
2022/12/15 10:48:41;;;;;;;15.80;13.48;;;;;;;;;;4988129;28;20397;-71
2022/12/15 10:51:35;;;;;;;20.00;13.88;;;;;;;;;;4985910;28;20431;-71
2022/12/15 10:54:03;;;;;;;14.70;11.35;;;;;;;;;;4984940;28;20041;-71
2022/12/15 10:56:32;;;;;;;16.77;11.05;;;;;;;;;;4990248;28;20038;-71
2022/12/15 10:59:20;;;;;;;12.90;11.52;;;;;;;;;;4987078;28;20037;-71
2022/12/15 11:01:46;;;;;;;16.92;11.85;;;;;;;;;;4984478;28;20065;-71
2022/12/15 11:04:26;;;;;;;16.80;12.80;;;;;;;;;;4995384;28;20030;-71
2022/12/15 11:07:01;;;;;;;14.50;11.43;;;;;;;;;;5005392;28;20061;-71
2022/12/15 11:09:29;;;;;;;15.00;11.25;;;;;;;;;;4987565;28;20022;-72
2022/12/15 11:14:50;;;;;;;14.27;11.95;;;;;;;;;;4990003;28;20049;-71
2022/12/15 11:17:18;;;;;;;16.88;12.55;;;;;;;;;;4984161;28;20034;-71
2022/12/15 11:19:48;;;;;;;19.60;13.02;;;;;;;;;;4989392;28;20487;-71
2022/12/15 11:22:14;;;;;;;14.75;11.60;;;;;;;;;;4986143;28;20392;-71
2022/12/15 11:24:43;;;;;;;29.67;22.48;;;;;;;;;;4987888;28;20038;-72
2022/12/15 11:27:17;;;;;;;22.10;14.88;;;;;;;;;;4981411;28;20053;-71
2022/12/15 11:29:45;;;;;;;15.10;11.93;;;;;;;;;;4991591;28;20038;-71
2022/12/15 11:32:14;;;;;;;17.67;12.88;;;;;;;;;;4987866;28;20385;-71
2022/12/15 11:34:44;;;;;;;15.80;10.85;;;;;;;;;;4991353;28;20408;-71
2022/12/15 11:37:36;;;;;;;13.48;11.38;;;;;;;;;;4986817;28;20507;-72
2022/12/15 11:40:21;;;;;;;15.05;10.57;;;;;;;;;;4950457;28;20034;-72
2022/12/15 11:43:05;;;;;;;17.58;11.80;;;;;;;;;;4987085;28;20034;-73
2022/12/15 11:45:39;;;;;;;15.45;10.57;;;;;;;;;;4985533;28;20489;-73
2022/12/15 11:48:13;;;;;;;16.33;12.93;;;;;;;;;;4987962;28;20154;-73
2022/12/15 11:50:38;;;;;;;;;;;;;;;;;;4991777;28;20019;-73
2022/12/15 11:53:23;;;;;;;27.33;18.25;;;;;;;;;;4985490;28;19937;-73
2022/12/15 11:56:06;;;;;;;20.95;16.45;;;;;;;;;;4992596;28;20031;-73
2022/12/15 11:58:47;;;;;;;15.88;12.80;;;;;;;;;;4990064;28;20031;-73
2022/12/15 12:01:22;;;;;;;15.43;11.48;;;;;;;;;;4990510;28;20659;-73
2022/12/15 12:04:08;;;;;;;16.77;14.85;;;;;;;;;;4991968;28;20031;-72
2022/12/15 12:06:39;;;;;;;19.38;12.27;;;;;;;;;;4989560;28;20034;-72
2022/12/15 12:09:10;;;;;;;20.73;15.43;;;;;;;;;;4981703;28;20022;-73
2022/12/15 12:11:42;;;;;;;16.35;13.43;;;;;;;;;;4989968;28;20126;-73
2022/12/15 12:14:16;;;;;;;17.33;11.40;;;;;;;;;;4990079;28;20029;-72
2022/12/15 12:16:44;;;;;;;14.82;11.88;;;;;;;;;;4989116;28;20038;-73
2022/12/15 12:19:19;;;;;;;10.13;9.15;;;;;;;;;;4982373;28;20466;-73
2022/12/15 12:21:47;;;;;;;12.15;10.38;;;;;;;;;;4982983;28;20030;-72
2022/12/15 12:24:15;;;;;;;11.85;10.52;;;;;;;;;;4983333;28;20026;-72
2022/12/15 12:26:53;;;;;;;14.93;10.40;;;;;;;;;;4990881;28;20520;-72
2022/12/15 12:29:19;;;;;;;15.68;13.07;;;;;;;;;;4985805;28;20031;-71
2022/12/15 12:31:59;;;;;;;19.05;12.68;;;;;;;;;;4989327;28;20026;-72
2022/12/15 12:34:50;;;;;;;11.80;10.60;;;;;;;;;;4976219;28;20045;-72
2022/12/15 12:37:22;;;;;;;12.00;10.48;;;;;;;;;;4989268;28;20396;-69
2022/12/15 12:39:52;;;;;;;11.82;7.63;;;;;;;;;;4992058;28;20038;-72
2022/12/15 12:42:28;;;;;;;11.63;8.63;;;;;;;;;;4985600;28;20042;-71
2022/12/15 12:44:54;;;;;;;13.70;9.93;;;;;;;;;;4990897;28;20038;-72
2022/12/15 12:47:26;;;;;;;10.20;9.07;;;;;;;;;;4990245;28;20041;-72
2022/12/15 12:50:24;;;;;;;15.75;13.00;;;;;;;;;;4990297;28;20029;-72
2022/12/15 12:52:56;;;;;;;17.15;12.75;;;;;;;;;;4980188;28;20046;-73
2022/12/15 12:55:28;;;;;;;12.13;9.48;;;;;;;;;;4987683;28;20033;-71
2022/12/15 12:57:54;;;;;;;11.57;10.30;;;;;;;;;;4998207;28;20512;-71
2022/12/15 13:00:25;;;;;;;12.23;10.57;;;;;;;;;;4992757;28;20045;-73
2022/12/15 13:02:50;;;;;;;16.75;11.90;;;;;;;;;;5002940;28;20041;-72
2022/12/15 13:05:23;;;;;;;15.57;9.95;;;;;;;;;;4989930;28;21996;-72
2022/12/15 13:07:53;;;;;;;9.88;8.07;;;;;;;;;;4982369;28;20043;-72
2022/12/15 13:10:23;;;;;;;11.20;9.27;;;;;;;;;;4992526;28;20018;-72
2022/12/15 13:12:54;;;;;;;9.68;8.52;;;;;;;;;;4995387;28;20040;-72
2022/12/15 13:15:26;;;;;;;14.38;9.60;;;;;;;;;;5005786;23;20057;31
2022/12/15 13:18:05;;;;;;;12.10;9.10;;;;;;;;;;4983083;28;20054;-78
2022/12/15 13:20:32;;;;;;;10.93;9.30;;;;;;;;;;4974831;28;20433;-78
2022/12/15 13:23:21;;;;;;;9.10;7.35;;;;;;;;;;4991610;28;20512;-78
2022/12/15 13:25:52;;;;;;;10.95;7.55;;;;;;;;;;4955006;28;20050;-78
2022/12/15 13:28:37;;;;;;;10.13;8.23;;;;;;;;;;4978270;28;20030;-78
2022/12/15 13:31:16;;;;;;;8.32;6.85;;;;;;;;;;4989193;28;20031;-78
2022/12/15 13:33:48;;;;;;;9.45;8.13;;;;;;;;;;4988350;28;20030;-78
2022/12/15 13:36:34;;;;;;;11.73;7.85;;;;;;;;;;4966614;28;20038;-78
2022/12/15 13:38:59;;;;;;;9.45;7.50;;;;;;;;;;4955742;28;20050;-78
2022/12/15 13:41:25;;;;;;;14.00;9.50;;;;;;;;;;4979525;28;20635;-78
2022/12/15 13:43:57;;;;;;;7.68;6.68;;;;;;;;;;4977811;28;20026;-78
2022/12/15 13:46:28;;;;;;;10.10;7.45;;;;;;;;;;4974209;28;20034;-77
2022/12/15 13:49:06;;;;;;;11.65;8.70;;;;;;;;;;4959333;28;20518;-78
2022/12/15 13:51:40;;;;;;;12.13;8.63;;;;;;;;;;4959715;28;20031;-77
2022/12/15 13:54:23;;;;;;;10.27;9.20;;;;;;;;;;4963702;28;20038;-77
2022/12/15 13:57:27;;;;;;;11.63;8.82;;;;;;;;;;4977702;28;20028;-77
2022/12/15 13:59:55;;;;;;;11.85;6.60;;;;;;;;;;4949792;28;20046;-77
2022/12/15 14:02:31;;;;;;;7.95;6.47;;;;;;;;;;4945017;28;20042;-77
2022/12/15 14:05:08;;;;;;;11.40;9.38;;;;;;;;;;4957062;28;20042;-78
2022/12/15 14:07:41;;;;;;;12.40;7.75;;;;;;;;;;4986054;28;20042;-77
2022/12/15 14:10:16;;;;;;;8.57;7.05;;;;;;;;;;4974991;28;20030;-77
2022/12/15 14:12:44;;;;;;;9.30;7.70;;;;;;;;;;4982861;28;20030;-78
2022/12/15 14:15:17;;;;;;;12.32;9.15;;;;;;;;;;4966137;28;20488;-78
2022/12/15 14:17:48;;;;;;;9.45;8.15;;;;;;;;;;4981293;28;20045;-77
2022/12/15 14:20:23;;;;;;;11.02;6.60;;;;;;;;;;4971228;28;20027;-77
2022/12/15 14:22:53;;;;;;;12.25;8.73;;;;;;;;;;4973576;28;20046;-77
2022/12/15 14:25:28;;;;;;;11.30;8.60;;;;;;;;;;4976898;28;20042;-77
2022/12/15 14:27:57;;;;;;;12.48;7.72;;;;;;;;;;4970261;28;20050;-77
2022/12/15 14:30:23;;;;;;;11.82;7.38;;;;;;;;;;4991033;28;20069;-77
2022/12/15 14:32:52;;;;;;;18.92;10.60;;;;;;;;;;4972822;28;20035;-77
2022/12/15 14:35:35;;;;;;;9.52;7.85;;;;;;;;;;4974550;28;20034;-77
2022/12/15 14:38:05;;;;;;;11.63;9.52;;;;;;;;;;4987227;28;20035;-77
2022/12/15 14:40:33;;;;;;;11.68;8.73;;;;;;;;;;4954699;28;20046;-77
2022/12/15 14:43:01;;;;;;;11.15;8.68;;;;;;;;;;4957981;28;20038;-77
2022/12/15 14:45:29;;;;;;;11.48;8.57;;;;;;;;;;4996123;28;20484;-77
2022/12/15 14:48:04;;;;;;;15.18;9.07;;;;;;;;;;4972340;28;20042;-77
2022/12/15 14:50:30;;;;;;;13.20;9.00;;;;;;;;;;4957816;28;20046;-77
2022/12/15 14:53:01;;;;;;;10.90;6.85;;;;;;;;;;4972495;28;20027;-77
2022/12/15 14:55:34;;;;;;;9.80;8.40;;;;;;;;;;4983925;28;20035;-77
2022/12/15 14:58:01;;;;;;;12.65;10.13;;;;;;;;;;4974068;28;20030;-77
2022/12/15 15:00:27;;;;;;;10.35;8.13;;;;;;;;;;5001414;28;20516;-77
2022/12/15 15:03:14;;;;;;;10.77;8.63;;;;;;;;;;4963182;28;20034;-78
2022/12/15 15:05:46;;;;;;;9.25;7.18;;;;;;;;;;4988403;28;20042;-77
2022/12/15 15:08:20;;;;;;;10.68;7.72;;;;;;;;;;4969914;28;20039;-77
2022/12/15 15:10:48;;;;;;;14.30;9.82;;;;;;;;;;4985869;28;20031;-77
2022/12/15 15:13:19;;;;;;;11.65;8.23;;;;;;;;;;4968533;28;20030;-78
2022/12/15 15:15:53;;;;;;;10.80;8.15;;;;;;;;;;4973240;28;20035;-77
2022/12/15 15:18:24;;;;;;;16.00;9.85;;;;;;;;;;4973982;28;20030;-78
2022/12/15 15:20:56;;;;;;;14.77;8.40;;;;;;;;;;4985863;28;20050;-77
2022/12/15 15:23:22;;;;;;;12.20;9.77;;;;;;;;;;4971699;28;20035;-77
2022/12/15 15:25:53;;;;;;;15.35;10.63;;;;;;;;;;4954622;28;20054;-78
2022/12/15 15:28:24;;;;;;;13.15;9.57;;;;;;;;;;4973625;28;20233;-78
2022/12/15 15:31:04;;;;;;;12.80;9.63;;;;;;;;;;4988568;28;20038;-77
2022/12/15 15:33:33;;;;;;;11.60;9.40;;;;;;;;;;4978057;28;20049;-78
2022/12/15 15:36:00;;;;;;;12.00;8.52;;;;;;;;;;4999131;28;20030;-77
2022/12/15 15:38:37;;;;;;;14.60;9.32;;;;;;;;;;4978390;28;20041;-78
2022/12/15 15:41:18;;;;;;;10.18;8.88;;;;;;;;;;4962104;28;20042;-77
2022/12/15 15:43:46;;;;;;;13.23;10.27;;;;;;;;;;4951387;28;20382;-77
2022/12/15 15:46:18;;;;;;;8.77;7.57;;;;;;;;;;4968521;28;20033;-77
2022/12/15 15:48:46;;;;;;;12.23;8.55;;;;;;;;;;4969450;28;20043;-78
2022/12/15 15:51:13;;;;;;;10.05;7.30;;;;;;;;;;4967506;28;20027;-77
2022/12/15 15:53:41;;;;;;;14.00;9.75;;;;;;;;;;4972892;28;20038;-77
2022/12/15 15:56:13;;;;;;;14.30;9.70;;;;;;;;;;4974910;28;20034;-78
2022/12/15 15:58:39;;;;;;;12.80;9.73;;;;;;;;;;4970444;28;20035;-78
2022/12/15 16:01:05;;;;;;;11.80;7.38;;;;;;;;;;4971967;28;20473;-77
2022/12/15 16:03:31;;;;;;;10.00;9.05;;;;;;;;;;4982572;28;20069;-77
2022/12/15 16:06:02;;;;;;;14.65;10.13;;;;;;;;;;4969560;28;20050;-77
2022/12/15 16:08:31;;;;;;;12.35;9.30;;;;;;;;;;4978920;28;20031;-77
2022/12/15 16:11:24;;;;;;;13.05;8.98;;;;;;;;;;4967936;28;20022;-77
2022/12/15 16:13:52;;;;;;;13.70;8.98;;;;;;;;;;4977111;28;20039;-77
2022/12/15 16:16:22;;;;;;;9.98;7.55;;;;;;;;;;4973779;28;20031;-77
2022/12/15 16:18:48;;;;;;;11.80;8.50;;;;;;;;;;4981626;28;20038;-78
2022/12/15 16:21:16;;;;;;;38.53;10.25;;;;;;;;;;4975025;28;20054;-77
2022/12/15 16:23:47;;;;;;;14.85;9.68;;;;;;;;;;4972736;28;20492;-77
2022/12/15 16:26:20;;;;;;;14.23;11.75;;;;;;;;;;4974390;28;20027;-77
2022/12/15 16:28:48;;;;;;;13.45;8.73;;;;;;;;;;4973742;28;20038;-77
2022/12/15 16:31:14;;;;;;;11.18;9.60;;;;;;;;;;5001645;28;20050;-78
2022/12/15 16:33:43;;;;;;;10.15;8.65;;;;;;;;;;4976277;28;20045;-77
2022/12/15 16:36:11;;;;;;;10.07;8.13;;;;;;;;;;4957679;28;20034;-77
2022/12/15 16:38:37;;;;;;;11.23;8.30;;;;;;;;;;4978474;28;20037;-78
2022/12/15 16:41:08;;;;;;;9.60;8.57;;;;;;;;;;4972483;28;20038;-77
2022/12/15 16:43:34;;;;;;;14.20;8.52;;;;;;;;;;4975055;28;20045;-77
2022/12/15 16:46:05;;;;;;;15.80;9.60;;;;;;;;;;4973544;28;20034;-77
2022/12/15 16:48:35;;;;;;;15.18;12.30;;;;;;;;;;4970289;28;20477;-78
2022/12/15 16:51:04;;;;;;;16.52;12.05;;;;;;;;;;4972444;28;20026;-77
2022/12/15 16:53:34;;;;;;;20.48;12.27;;;;;;;;;;4975824;28;20038;-77
2022/12/15 16:56:06;;;;;;;17.85;12.73;;;;;;;;;;4981260;28;20023;-77
2022/12/15 16:58:34;;;;;;;20.73;16.13;;;;;;;;;;4977724;28;20031;-78
2022/12/15 17:01:00;;;;;;;23.00;14.55;;;;;;;;;;4968781;28;20508;-78
2022/12/15 17:03:31;;;;;;;21.70;15.13;;;;;;;;;;4985871;28;20035;-77
2022/12/15 17:05:59;;;;;;;18.70;14.27;;;;;;;;;;4979026;28;20031;-77